createdAt,value
2023-02-28T00:01:30.763Z,56.87
2023-02-28T00:03:58.921Z,56.89
2023-02-28T00:06:27.864Z,57.00
2023-02-28T00:08:56.273Z,57.07
2023-02-28T00:11:24.456Z,56.73
2023-02-28T00:13:53.102Z,56.89
2023-02-28T00:16:23.422Z,57.14
2023-02-28T00:18:52.026Z,56.88
2023-02-28T00:21:21.027Z,56.89
2023-02-28T00:23:49.426Z,57.19
2023-02-28T00:26:18.660Z,56.95
2023-02-28T00:28:49.527Z,56.93
2023-02-28T00:31:17.358Z,57.29
2023-02-28T00:33:45.130Z,57.23
2023-02-28T00:36:12.935Z,57.02
2023-02-28T00:38:41.879Z,57.13
2023-02-28T00:41:10.435Z,57.28
2023-02-28T00:43:40.418Z,57.16
2023-02-28T00:46:08.717Z,57.42
2023-02-28T00:48:37.487Z,57.42
2023-02-28T00:51:05.640Z,57.51
2023-02-28T00:53:34.542Z,57.58
2023-02-28T00:56:02.700Z,57.78
2023-02-28T00:58:31.476Z,57.54
2023-02-28T01:00:59.402Z,57.72
2023-02-28T01:03:27.241Z,57.61
2023-02-28T01:05:55.860Z,57.44
2023-02-28T01:08:23.623Z,57.61
2023-02-28T01:10:52.512Z,57.59
2023-02-28T01:13:21.738Z,57.87
2023-02-28T01:15:56.326Z,57.65
2023-02-28T01:18:25.653Z,57.89
2023-02-28T01:20:54.239Z,57.79
2023-02-28T01:23:24.545Z,57.90
2023-02-28T01:25:53.336Z,57.68
2023-02-28T01:28:21.655Z,57.98
2023-02-28T01:30:51.487Z,58.01
2023-02-28T01:33:20.179Z,57.88
2023-02-28T01:35:48.259Z,57.68
2023-02-28T01:38:22.589Z,57.94
2023-02-28T01:40:51.892Z,57.94
2023-02-28T01:43:27.605Z,57.83
2023-02-28T01:45:57.628Z,57.90
2023-02-28T01:48:32.624Z,58.02
2023-02-28T01:51:06.237Z,57.94
2023-02-28T01:53:38.654Z,58.08
2023-02-28T01:56:10.407Z,58.12
2023-02-28T01:58:39.418Z,58.16
2023-02-28T02:01:07.262Z,58.03
2023-02-28T02:03:36.727Z,58.27
2023-02-28T02:06:05.184Z,58.27
2023-02-28T02:08:33.134Z,58.15
2023-02-28T02:11:02.808Z,58.31
2023-02-28T02:13:40.188Z,58.14
2023-02-28T02:16:27.131Z,58.14
2023-02-28T02:18:57.493Z,58.29
2023-02-28T02:21:44.555Z,58.61
2023-02-28T02:24:15.188Z,58.23
2023-02-28T02:27:03.908Z,58.75
2023-02-28T02:29:54.989Z,58.47
2023-02-28T02:32:50.683Z,58.48
2023-02-28T02:35:59.852Z,58.78
2023-02-28T02:38:36.646Z,58.67
2023-02-28T02:41:25.954Z,58.62
2023-02-28T02:44:20.246Z,58.73
2023-02-28T02:46:49.801Z,58.72
2023-02-28T02:49:25.645Z,58.69
2023-02-28T02:51:56.316Z,58.97
2023-02-28T02:54:34.652Z,58.98
2023-02-28T02:57:09.749Z,59.14
2023-02-28T02:59:40.662Z,59.13
2023-02-28T03:02:13.799Z,58.83
2023-02-28T03:04:50.329Z,59.13
2023-02-28T03:07:18.292Z,58.73
2023-02-28T03:09:57.020Z,58.93
2023-02-28T03:12:33.524Z,58.95
2023-02-28T03:15:22.668Z,59.21
2023-02-28T03:18:12.657Z,59.02
2023-02-28T03:21:19.258Z,59.10
2023-02-28T03:23:54.641Z,59.20
2023-02-28T03:26:28.455Z,59.28
2023-02-28T03:29:24.664Z,59.31
2023-02-28T03:32:22.753Z,59.25
2023-02-28T03:35:01.746Z,59.51
2023-02-28T03:37:32.800Z,59.39
2023-02-28T03:40:08.296Z,59.30
2023-02-28T03:42:39.506Z,59.26
2023-02-28T03:45:15.188Z,59.50
2023-02-28T03:47:51.768Z,59.40
2023-02-28T03:50:25.231Z,59.34
2023-02-28T03:53:21.967Z,59.44
2023-02-28T03:55:55.216Z,59.27
2023-02-28T03:58:55.362Z,59.58
2023-02-28T04:01:37.090Z,59.55
2023-02-28T04:04:05.660Z,59.53
2023-02-28T04:06:34.889Z,59.30
2023-02-28T04:09:04.848Z,59.57
2023-02-28T04:11:50.632Z,59.37
2023-02-28T04:14:18.861Z,59.68
2023-02-28T04:16:47.017Z,59.51
2023-02-28T04:19:15.580Z,59.64
2023-02-28T04:21:45.194Z,59.55
2023-02-28T04:24:22.659Z,59.68
2023-02-28T04:26:53.249Z,59.62
2023-02-28T04:29:24.703Z,59.69
2023-02-28T04:31:59.058Z,59.61
2023-02-28T04:34:28.574Z,59.64
2023-02-28T04:37:12.041Z,59.45
2023-02-28T04:39:40.944Z,59.71
2023-02-28T04:42:08.976Z,59.72
2023-02-28T04:44:37.359Z,59.69
2023-02-28T04:47:05.233Z,59.98
2023-02-28T04:49:33.046Z,59.83
2023-02-28T04:52:00.930Z,59.78
2023-02-28T04:54:29.506Z,59.81
2023-02-28T04:56:57.372Z,60.04
2023-02-28T04:59:25.789Z,59.71
2023-02-28T05:01:53.875Z,59.77
2023-02-28T05:04:22.602Z,59.91
2023-02-28T05:06:50.735Z,59.94
2023-02-28T05:09:18.521Z,59.86
2023-02-28T05:11:46.313Z,59.90
2023-02-28T05:14:15.434Z,59.91
2023-02-28T05:16:44.301Z,59.99
2023-02-28T05:19:12.170Z,60.08
2023-02-28T05:21:43.050Z,59.99
2023-02-28T05:24:13.041Z,60.11
2023-02-28T05:26:42.879Z,60.20
2023-02-28T05:29:11.288Z,59.90
2023-02-28T05:31:39.595Z,60.13
2023-02-28T05:34:08.036Z,59.99
2023-02-28T05:36:38.118Z,60.28
2023-02-28T05:39:13.874Z,60.18
2023-02-28T05:41:43.351Z,60.27
2023-02-28T05:44:11.842Z,60.26
2023-02-28T05:46:39.702Z,60.48
2023-02-28T05:49:08.080Z,60.32
2023-02-28T05:51:37.657Z,60.29
2023-02-28T05:54:05.716Z,60.40
2023-02-28T05:56:35.696Z,60.49
2023-02-28T05:59:03.542Z,60.56
2023-02-28T06:01:37.976Z,60.50
2023-02-28T06:04:10.988Z,60.80
2023-02-28T06:06:40.612Z,60.74
2023-02-28T06:09:08.579Z,60.77
2023-02-28T06:11:36.411Z,60.66
2023-02-28T06:14:04.995Z,60.96
2023-02-28T06:16:35.520Z,61.05
2023-02-28T06:19:05.003Z,61.06
2023-02-28T06:21:33.186Z,61.08
2023-02-28T06:24:01.277Z,61.19
2023-02-28T06:26:29.305Z,61.25
2023-02-28T06:28:57.739Z,60.95
2023-02-28T06:31:27.114Z,60.88
2023-02-28T06:33:55.061Z,60.91
2023-02-28T06:36:23.567Z,61.16
2023-02-28T06:38:55.797Z,60.91
2023-02-28T06:41:28.689Z,60.86
2023-02-28T06:43:57.510Z,60.96
2023-02-28T06:46:25.376Z,61.23
2023-02-28T06:48:53.270Z,60.91
2023-02-28T06:51:23.392Z,61.21
2023-02-28T06:53:52.366Z,61.44
2023-02-28T06:56:21.454Z,61.38
2023-02-28T06:58:51.844Z,61.28
2023-02-28T07:01:20.985Z,61.42
2023-02-28T07:03:53.520Z,61.46
2023-02-28T07:06:23.739Z,61.57
2023-02-28T07:08:53.799Z,61.59
2023-02-28T07:11:23.819Z,61.64
2023-02-28T07:13:52.090Z,61.52
2023-02-28T07:16:20.210Z,61.62
2023-02-28T07:18:48.820Z,61.72
2023-02-28T07:21:17.102Z,61.78
2023-02-28T07:23:44.978Z,61.63
2023-02-28T07:26:16.855Z,61.69
2023-02-28T07:28:46.658Z,61.88
2023-02-28T07:31:15.421Z,61.62
2023-02-28T07:33:44.156Z,61.96
2023-02-28T07:36:16.446Z,62.18
2023-02-28T07:38:48.347Z,62.48
2023-02-28T07:41:22.138Z,61.96
2023-02-28T07:43:50.642Z,61.93
2023-02-28T07:46:19.545Z,62.04
2023-02-28T07:48:47.398Z,61.98
2023-02-28T07:51:15.416Z,62.06
2023-02-28T07:53:43.626Z,62.52
2023-02-28T07:56:11.887Z,62.23
2023-02-28T07:58:40.913Z,62.54
2023-02-28T08:01:11.534Z,62.41
2023-02-28T08:03:40.434Z,62.50
2023-02-28T08:06:16.276Z,62.65
2023-02-28T08:08:45.476Z,62.75
2023-02-28T08:11:13.370Z,62.63
2023-02-28T08:13:41.233Z,62.63
2023-02-28T08:16:09.013Z,62.57
2023-02-28T08:18:37.440Z,62.45
2023-02-28T08:21:11.891Z,62.66
2023-02-28T08:23:40.070Z,62.57
2023-02-28T08:26:08.544Z,62.40
2023-02-28T08:28:36.474Z,62.47
2023-02-28T08:31:10.203Z,62.64
2023-02-28T08:33:40.126Z,62.60
2023-02-28T08:36:09.747Z,62.68
2023-02-28T08:38:38.894Z,62.44
2023-02-28T08:41:10.003Z,62.54
2023-02-28T08:43:39.303Z,62.45
2023-02-28T08:46:08.320Z,62.62
2023-02-28T08:49:03.433Z,62.40
2023-02-28T08:51:31.616Z,62.50
2023-02-28T08:54:01.829Z,62.57
2023-02-28T08:56:30.016Z,62.48
2023-02-28T08:58:58.911Z,62.41
2023-02-28T09:01:29.951Z,62.42
2023-02-28T09:03:59.133Z,62.37
2023-02-28T09:06:28.715Z,62.39
2023-02-28T09:09:00.662Z,62.50
2023-02-28T09:11:30.150Z,62.46
2023-02-28T09:14:01.258Z,62.38
2023-02-28T09:16:29.168Z,62.46
2023-02-28T09:18:57.253Z,62.54
2023-02-28T09:21:25.243Z,62.56
2023-02-28T09:23:54.081Z,62.33
2023-02-28T09:26:32.480Z,62.44
2023-02-28T09:29:07.766Z,62.37
2023-02-28T09:31:35.605Z,62.37
2023-02-28T09:34:05.234Z,62.35
2023-02-28T09:36:44.854Z,62.34
2023-02-28T09:39:16.552Z,62.39
2023-02-28T09:41:51.170Z,62.34
2023-02-28T09:44:30.382Z,62.36
2023-02-28T09:47:12.413Z,62.38
2023-02-28T09:49:45.013Z,62.42
2023-02-28T09:52:22.652Z,62.51
2023-02-28T09:54:51.025Z,62.52
2023-02-28T09:57:30.854Z,62.52
2023-02-28T10:00:22.835Z,62.30
2023-02-28T10:02:59.284Z,62.29
2023-02-28T10:05:54.661Z,62.46
2023-02-28T10:08:34.221Z,62.69
2023-02-28T10:11:07.708Z,62.41
2023-02-28T10:14:11.583Z,62.50
2023-02-28T10:17:00.721Z,62.46
2023-02-28T10:19:56.803Z,62.42
2023-02-28T10:23:08.239Z,62.47
2023-02-28T10:25:38.189Z,62.45
2023-02-28T10:28:12.721Z,62.40
2023-02-28T10:30:53.163Z,62.27
2023-02-28T10:33:41.870Z,62.34
2023-02-28T10:36:15.324Z,62.39
2023-02-28T10:38:45.168Z,62.46
2023-02-28T10:41:29.723Z,62.43
2023-02-28T10:44:19.029Z,62.45
2023-02-28T10:46:47.165Z,62.62
2023-02-28T10:49:28.041Z,62.41
2023-02-28T10:52:00.745Z,62.49
2023-02-28T10:54:34.988Z,62.36
2023-02-28T10:57:20.257Z,62.35
2023-02-28T10:59:53.839Z,62.39
2023-02-28T11:02:30.743Z,62.27
2023-02-28T11:04:59.326Z,62.26
2023-02-28T11:07:37.343Z,62.11
2023-02-28T11:10:22.720Z,62.23
2023-02-28T11:12:53.221Z,62.17
2023-02-28T11:15:26.933Z,62.09
2023-02-28T11:17:58.599Z,62.20
2023-02-28T11:20:30.607Z,61.99
2023-02-28T11:23:02.040Z,62.16
2023-02-28T11:25:32.817Z,61.97
2023-02-28T11:28:07.375Z,62.13
2023-02-28T11:30:40.619Z,62.01
2023-02-28T11:33:45.971Z,62.06
2023-02-28T11:36:22.126Z,61.82
2023-02-28T11:38:53.351Z,62.06
2023-02-28T11:41:36.041Z,61.88
2023-02-28T11:44:15.249Z,61.83
2023-02-28T11:46:54.542Z,62.04
2023-02-28T11:49:28.426Z,61.86
2023-02-28T11:52:02.320Z,62.01
2023-02-28T11:54:53.716Z,61.91
2023-02-28T11:57:40.080Z,61.97
2023-02-28T12:00:19.744Z,61.79
2023-02-28T12:02:59.866Z,61.80
2023-02-28T12:05:57.339Z,61.89
2023-02-28T12:09:03.237Z,62.07
2023-02-28T12:11:51.877Z,62.01
2023-02-28T12:14:26.089Z,61.96
2023-02-28T12:17:16.905Z,62.13
2023-02-28T12:19:56.477Z,62.03
2023-02-28T12:22:33.447Z,62.02
2023-02-28T12:25:07.362Z,62.13
2023-02-28T12:27:40.457Z,62.17
2023-02-28T12:30:23.389Z,62.14
2023-02-28T12:32:57.896Z,62.05
2023-02-28T12:35:57.087Z,61.96
2023-02-28T12:38:48.591Z,61.94
2023-02-28T12:41:42.202Z,61.55
2023-02-28T12:44:19.172Z,62.04
2023-02-28T12:46:52.062Z,62.06
2023-02-28T12:49:39.477Z,62.01
2023-02-28T12:52:12.218Z,61.86
2023-02-28T12:54:58.525Z,61.78
2023-02-28T12:57:37.996Z,61.72
2023-02-28T13:00:19.321Z,61.58
2023-02-28T13:02:50.748Z,61.55
2023-02-28T13:05:34.386Z,61.46
2023-02-28T13:08:30.114Z,61.49
2023-02-28T13:10:58.243Z,61.76
2023-02-28T13:13:32.984Z,61.88
2023-02-28T13:16:07.131Z,61.74
2023-02-28T13:18:47.448Z,61.54
2023-02-28T13:21:28.655Z,61.34
2023-02-28T13:24:05.825Z,61.52
2023-02-28T13:26:36.732Z,61.80
2023-02-28T13:29:19.995Z,61.64
2023-02-28T13:32:10.081Z,61.64
2023-02-28T13:34:48.557Z,61.37
2023-02-28T13:37:19.266Z,61.60
2023-02-28T13:39:54.422Z,61.70
2023-02-28T13:42:38.412Z,61.30
2023-02-28T13:45:07.647Z,61.22
2023-02-28T13:47:46.130Z,61.54
2023-02-28T13:50:30.219Z,61.47
2023-02-28T13:53:16.585Z,61.40
2023-02-28T13:55:54.226Z,61.57
2023-02-28T13:58:55.697Z,61.57
2023-02-28T14:01:43.112Z,61.40
2023-02-28T14:04:32.455Z,61.48
2023-02-28T14:07:03.454Z,61.53
2023-02-28T14:09:36.333Z,61.26
2023-02-28T14:12:41.916Z,61.57
2023-02-28T14:15:50.622Z,61.49
2023-02-28T14:18:26.948Z,61.41
2023-02-28T14:21:17.903Z,61.16
2023-02-28T14:24:14.385Z,61.46
2023-02-28T14:26:59.728Z,61.21
2023-02-28T14:29:30.951Z,61.35
2023-02-28T14:32:23.830Z,61.41
2023-02-28T14:35:03.753Z,61.52
2023-02-28T14:37:37.573Z,61.15
2023-02-28T14:40:15.848Z,61.33
2023-02-28T14:42:55.288Z,61.51
2023-02-28T14:45:24.307Z,61.31
2023-02-28T14:47:53.918Z,61.36
2023-02-28T14:50:25.595Z,61.33
2023-02-28T14:52:56.155Z,61.07
2023-02-28T14:55:31.526Z,61.25
2023-02-28T14:58:07.313Z,61.18
2023-02-28T15:00:47.479Z,61.00
2023-02-28T15:03:40.694Z,61.14
2023-02-28T15:09:09.524Z,60.90
2023-02-28T15:11:38.375Z,61.05
2023-02-28T15:14:06.358Z,61.15
2023-02-28T15:16:41.391Z,60.99
2023-02-28T15:19:20.523Z,60.88
2023-02-28T15:21:55.384Z,61.04
2023-02-28T15:24:51.072Z,61.02
2023-02-28T15:27:25.559Z,61.00
2023-02-28T15:30:00.557Z,61.03
2023-02-28T15:32:32.301Z,60.98
2023-02-28T15:35:23.887Z,61.07
2023-02-28T15:38:02.193Z,60.80
2023-02-28T15:40:43.247Z,61.03
2023-02-28T15:43:16.669Z,61.02
2023-02-28T15:46:02.543Z,60.98
2023-02-28T15:48:38.219Z,60.91
2023-02-28T15:51:14.420Z,60.83
2023-02-28T15:53:51.219Z,61.04
2023-02-28T15:56:26.932Z,61.02
2023-02-28T15:59:03.099Z,60.87
2023-02-28T16:01:34.370Z,61.02
2023-02-28T16:04:16.724Z,61.01
2023-02-28T16:07:00.630Z,61.06
2023-02-28T16:09:30.793Z,60.95
2023-02-28T16:12:04.279Z,60.89
2023-02-28T16:14:33.143Z,60.98
2023-02-28T16:17:25.121Z,60.98
2023-02-28T16:19:54.207Z,61.04
2023-02-28T16:22:40.113Z,61.15
2023-02-28T16:25:12.815Z,60.98
2023-02-28T16:27:42.095Z,61.05
2023-02-28T16:30:20.362Z,60.98
2023-02-28T16:32:50.232Z,60.98
2023-02-28T16:35:20.875Z,60.96
2023-02-28T16:37:49.466Z,60.94
2023-02-28T16:40:24.075Z,61.06
2023-02-28T16:42:54.970Z,61.10
2023-02-28T16:45:26.183Z,61.10
2023-02-28T16:47:55.178Z,61.00
2023-02-28T16:50:28.727Z,61.02
2023-02-28T16:52:57.323Z,61.12
2023-02-28T16:55:27.292Z,61.26
2023-02-28T16:57:58.299Z,61.17
2023-02-28T17:00:28.745Z,61.21
2023-02-28T17:02:57.182Z,61.22
2023-02-28T17:05:25.236Z,61.45
2023-02-28T17:07:53.095Z,61.17
2023-02-28T17:10:26.501Z,61.35
2023-02-28T17:12:58.371Z,61.24
2023-02-28T17:15:32.271Z,61.55
2023-02-28T17:18:00.383Z,61.26
2023-02-28T17:20:28.248Z,61.42
2023-02-28T17:22:57.645Z,61.50
2023-02-28T17:25:25.923Z,61.39
2023-02-28T17:27:54.303Z,61.54
2023-02-28T17:30:28.204Z,61.42
2023-02-28T17:32:57.588Z,61.49
2023-02-28T17:35:25.513Z,61.49
2023-02-28T17:37:53.780Z,61.36
2023-02-28T17:40:24.916Z,61.66
2023-02-28T17:42:53.491Z,61.49
2023-02-28T17:45:21.461Z,61.41
2023-02-28T17:47:51.345Z,61.48
2023-02-28T17:50:22.118Z,61.45
2023-02-28T17:52:51.584Z,61.47
2023-02-28T17:55:22.678Z,61.56
2023-02-28T17:57:50.578Z,61.46
2023-02-28T18:00:19.478Z,61.68
2023-02-28T18:02:47.323Z,61.63
2023-02-28T18:05:16.001Z,61.45
2023-02-28T18:07:44.004Z,61.83
2023-02-28T18:10:20.478Z,61.59
2023-02-28T18:12:50.873Z,61.42
2023-02-28T18:15:22.411Z,61.56
2023-02-28T18:17:50.980Z,61.75
2023-02-28T18:20:19.759Z,61.82
2023-02-28T18:22:47.744Z,61.65
2023-02-28T18:25:17.163Z,61.55
2023-02-28T18:27:58.431Z,61.55
2023-02-28T18:30:32.030Z,61.66
2023-02-28T18:33:01.428Z,61.73
2023-02-28T18:35:37.175Z,61.83
2023-02-28T18:38:17.003Z,61.73
2023-02-28T18:40:56.387Z,62.05
2023-02-28T18:43:24.248Z,61.88
2023-02-28T18:45:52.436Z,61.95
2023-02-28T18:48:23.420Z,61.75
2023-02-28T18:50:51.659Z,61.85
2023-02-28T18:53:20.426Z,61.61
2023-02-28T18:55:48.251Z,61.88
2023-02-28T18:58:16.097Z,61.90
2023-02-28T19:00:44.551Z,61.97
2023-02-28T19:03:12.977Z,61.95
2023-02-28T19:05:40.838Z,61.98
2023-02-28T19:08:09.095Z,62.05
2023-02-28T19:10:40.332Z,62.04
2023-02-28T19:13:08.248Z,62.13
2023-02-28T19:15:36.558Z,62.06
2023-02-28T19:18:04.539Z,62.06
2023-02-28T19:20:32.328Z,62.30
2023-02-28T19:23:01.434Z,62.31
2023-02-28T19:25:29.431Z,62.24
2023-02-28T19:27:57.399Z,62.38
2023-02-28T19:30:26.176Z,62.56
2023-02-28T19:32:54.075Z,62.16
2023-02-28T19:35:21.982Z,62.41
2023-02-28T19:37:50.591Z,62.40
2023-02-28T19:40:18.661Z,62.31
2023-02-28T19:42:47.200Z,62.66
2023-02-28T19:45:15.531Z,62.47
2023-02-28T19:47:44.736Z,62.59
2023-02-28T19:50:12.689Z,62.56
2023-02-28T19:55:14.018Z,62.75
2023-02-28T19:57:42.984Z,62.55
2023-02-28T20:00:14.239Z,62.70
2023-02-28T20:02:42.579Z,62.62
2023-02-28T20:05:10.787Z,62.56
2023-02-28T20:07:38.537Z,62.68
2023-02-28T20:10:07.219Z,62.42
2023-02-28T20:12:35.787Z,62.59
2023-02-28T20:15:03.990Z,62.69
2023-02-28T20:17:31.873Z,62.50
2023-02-28T20:19:59.707Z,62.88
2023-02-28T20:22:27.553Z,62.87
2023-02-28T20:24:55.788Z,62.86
2023-02-28T20:27:24.110Z,62.64
2023-02-28T20:29:53.328Z,62.78
2023-02-28T20:32:21.233Z,62.95
2023-02-28T20:34:49.019Z,62.99
2023-02-28T20:37:16.841Z,62.64
2023-02-28T20:39:45.278Z,62.68
2023-02-28T20:42:13.571Z,62.81
2023-02-28T20:44:41.401Z,62.91
2023-02-28T20:47:09.183Z,62.94
2023-02-28T20:49:36.984Z,63.01
2023-02-28T20:52:04.884Z,63.03
2023-02-28T20:54:36.131Z,62.73
2023-02-28T20:57:04.713Z,62.87
2023-02-28T20:59:32.590Z,63.02
2023-02-28T21:02:00.355Z,63.14
2023-02-28T21:04:28.447Z,63.07
2023-02-28T21:06:56.528Z,62.89
2023-02-28T21:09:24.877Z,63.17
2023-02-28T21:11:53.935Z,63.10
2023-02-28T21:14:21.851Z,63.31
2023-02-28T21:16:49.729Z,63.25
2023-02-28T21:19:18.822Z,63.10
2023-02-28T21:21:48.133Z,63.38
2023-02-28T21:24:19.329Z,63.62
2023-02-28T21:26:48.547Z,63.38
2023-02-28T21:29:16.708Z,63.36
2023-02-28T21:31:44.658Z,63.35
2023-02-28T21:34:13.693Z,63.27
2023-02-28T21:36:45.892Z,63.62
2023-02-28T21:39:21.874Z,63.55
2023-02-28T21:41:50.492Z,63.42
2023-02-28T21:44:18.879Z,63.56
2023-02-28T21:46:49.110Z,63.71
2023-02-28T21:49:17.708Z,63.57
2023-02-28T21:51:46.144Z,63.52
2023-02-28T21:54:14.697Z,63.43
2023-02-28T21:56:42.618Z,63.37
2023-02-28T21:59:11.181Z,63.53
2023-02-28T22:01:44.345Z,63.76
2023-02-28T22:04:22.719Z,63.78
2023-02-28T22:06:54.436Z,63.64
2023-02-28T22:09:22.278Z,63.63
2023-02-28T22:11:50.560Z,63.65
2023-02-28T22:14:18.847Z,63.61
2023-02-28T22:16:52.580Z,63.73
2023-02-28T22:19:23.722Z,64.02
2023-02-28T22:21:53.896Z,63.86
2023-02-28T22:24:24.660Z,63.78
2023-02-28T22:26:53.539Z,63.93
2023-02-28T22:29:21.367Z,63.81
2023-02-28T22:31:49.341Z,63.84
2023-02-28T22:34:17.962Z,63.95
2023-02-28T22:36:45.749Z,63.88
2023-02-28T22:39:13.672Z,63.91
2023-02-28T22:41:41.983Z,63.94
2023-02-28T22:44:11.128Z,64.03
2023-02-28T22:46:39.031Z,63.92
2023-02-28T22:49:07.414Z,63.95
2023-02-28T22:51:35.392Z,64.11
2023-02-28T22:54:04.020Z,64.07
2023-02-28T22:56:32.781Z,64.09
2023-02-28T22:59:01.662Z,64.29
2023-02-28T23:01:32.729Z,63.95
2023-02-28T23:04:02.044Z,64.19
2023-02-28T23:06:33.520Z,64.08
2023-02-28T23:09:08.241Z,64.01
2023-02-28T23:11:41.044Z,64.12
2023-02-28T23:14:12.940Z,64.24
2023-02-28T23:16:44.093Z,64.27
2023-02-28T23:19:16.100Z,64.16
2023-02-28T23:21:45.377Z,64.27
2023-02-28T23:24:15.920Z,64.14
2023-02-28T23:26:47.246Z,63.84
2023-02-28T23:29:17.624Z,64.19
2023-02-28T23:31:45.639Z,64.05
2023-02-28T23:34:14.458Z,64.22
2023-02-28T23:36:46.350Z,64.26
2023-02-28T23:39:17.453Z,64.43
2023-02-28T23:41:46.878Z,64.28
2023-02-28T23:44:17.143Z,64.18
2023-02-28T23:46:46.675Z,64.39
2023-02-28T23:49:16.594Z,64.47
2023-02-28T23:51:44.366Z,64.15
2023-02-28T23:54:12.935Z,64.43
2023-02-28T23:56:41.333Z,64.36
2023-02-28T23:59:09.247Z,64.18
